Time;durP1;ratioP1;P1;durP2;ratioP2;P2;SDS_P1;SDS_P2;PMS_P1;PMS_P2;Temp;Humidity;BMP_temperature;BMP_pressure;BME280_temperature;BME280_humidity;BME280_pressure;Samples;Min_cycle;Max_cycle;Signal;HPM_P1;HPM_P2
2024/01/27 00:00:43;;;;;;;3.08;0.93;;;10.90;87.80;;;;;;5133924;27;20026;-81
2024/01/27 00:03:09;;;;;;;2.97;1.00;;;10.90;87.80;;;;;;5115585;27;20471;-81
2024/01/27 00:05:34;;;;;;;3.25;0.90;;;10.90;87.80;;;;;;5115343;27;20023;-81
2024/01/27 00:08:00;;;;;;;3.50;0.80;;;10.90;87.80;;;;;;5115280;27;20042;-81
2024/01/27 00:10:25;;;;;;;3.88;0.90;;;10.90;87.80;;;;;;5115416;27;20479;-81
2024/01/27 00:12:51;;;;;;;3.33;0.82;;;10.90;87.80;;;;;;5115457;27;20100;-80
2024/01/27 00:15:16;;;;;;;2.60;0.90;;;10.90;87.80;;;;;;5115165;27;20036;-81
2024/01/27 00:17:42;;;;;;;3.63;0.75;;;10.90;87.80;;;;;;5115120;27;20471;-81
2024/01/27 00:20:08;;;;;;;2.50;0.82;;;10.90;87.80;;;;;;5115297;27;20375;-80
2024/01/27 00:22:33;;;;;;;3.42;1.42;;;10.90;87.80;;;;;;5115460;27;20047;-80
2024/01/27 00:24:58;;;;;;;3.30;0.90;;;10.90;87.80;;;;;;5115348;28;20024;-81
2024/01/27 00:27:24;;;;;;;3.78;1.00;;;10.90;87.80;;;;;;5114966;28;20057;-80
2024/01/27 00:29:50;;;;;;;2.30;0.80;;;10.90;87.80;;;;;;5115556;28;20078;-80
2024/01/27 00:32:15;;;;;;;2.45;0.85;;;10.90;87.80;;;;;;5115211;28;20110;-80
2024/01/27 00:34:41;;;;;;;3.00;0.90;;;10.90;87.80;;;;;;5133375;28;20031;-80
2024/01/27 00:37:06;;;;;;;3.75;0.88;;;10.90;87.80;;;;;;5114783;28;20072;-81
2024/01/27 00:39:32;;;;;;;2.90;0.88;;;10.90;87.80;;;;;;5115194;28;20019;-80
2024/01/27 00:41:58;;;;;;;2.67;0.90;;;10.90;87.80;;;;;;5115010;28;20029;-81
2024/01/27 00:44:24;;;;;;;2.42;0.70;;;10.90;87.80;;;;;;5133369;28;20019;-80
2024/01/27 00:46:49;;;;;;;4.22;1.05;;;10.90;87.80;;;;;;5114966;28;20510;-80
2024/01/27 00:49:15;;;;;;;3.28;0.82;;;10.90;87.80;;;;;;5115242;28;20019;-81
2024/01/27 00:51:40;;;;;;;2.80;0.88;;;10.90;87.80;;;;;;5115043;28;20019;-82
2024/01/27 00:54:06;;;;;;;2.90;0.80;;;10.80;87.70;;;;;;5114812;28;20023;-80
2024/01/27 00:56:32;;;;;;;3.30;0.90;;;10.90;87.80;;;;;;5135595;27;20388;-80
2024/01/27 00:58:57;;;;;;;5.15;1.35;;;10.90;87.80;;;;;;5119057;27;20022;-80
2024/01/27 01:01:23;;;;;;;2.58;0.82;;;10.90;87.80;;;;;;5119341;27;20024;-80
2024/01/27 01:03:48;;;;;;;3.70;1.00;;;10.90;87.80;;;;;;5119175;27;20467;-80
2024/01/27 01:06:14;;;;;;;2.65;0.80;;;10.90;87.80;;;;;;5118760;27;20019;-81
2024/01/27 01:08:39;;;;;;;4.50;1.17;;;10.90;87.80;;;;;;5118980;27;20034;-81
2024/01/27 01:11:05;;;;;;;3.08;0.90;;;10.90;87.80;;;;;;5137547;27;20027;-81
2024/01/27 01:13:30;;;;;;;3.80;1.00;;;10.90;87.80;;;;;;5118542;27;20039;-80
2024/01/27 01:15:56;;;;;;;2.55;1.00;;;10.90;87.80;;;;;;5136876;27;20019;-81
2024/01/27 01:18:21;;;;;;;2.70;0.70;;;10.90;88.30;;;;;;5137066;27;20063;-81
2024/01/27 01:20:47;;;;;;;2.90;1.00;;;10.90;87.80;;;;;;5118846;27;20053;-81
2024/01/27 01:23:12;;;;;;;2.88;0.82;;;10.90;87.80;;;;;;5118537;27;20494;-81
2024/01/27 01:25:37;;;;;;;4.32;1.15;;;10.90;87.80;;;;;;5118407;27;20035;-81
2024/01/27 01:28:03;;;;;;;3.67;0.90;;;10.90;87.80;;;;;;5137044;27;20019;-81
2024/01/27 01:30:29;;;;;;;2.72;0.98;;;10.90;87.80;;;;;;5118643;27;20033;-81
2024/01/27 01:32:54;;;;;;;2.95;0.80;;;10.90;87.80;;;;;;5118397;27;20031;-81
2024/01/27 01:35:20;;;;;;;3.42;0.80;;;10.90;87.80;;;;;;5118080;27;20049;-81
2024/01/27 01:37:48;;;;;;;2.10;0.70;;;10.90;87.80;;;;;;5118096;27;20707;-81
2024/01/27 01:40:15;;;;;;;2.13;0.65;;;10.90;87.80;;;;;;5136749;27;20011;-81
2024/01/27 01:42:41;;;;;;;4.10;1.00;;;10.80;87.70;;;;;;5136167;27;20451;-81
2024/01/27 01:45:07;;;;;;;3.47;1.20;;;10.90;87.80;;;;;;5118218;27;20062;-81
2024/01/27 01:47:33;;;;;;;3.35;0.80;;;10.90;87.80;;;;;;5117978;27;20118;-81
2024/01/27 01:49:59;;;;;;;1.45;0.70;;;10.90;87.80;;;;;;5136544;27;20020;-80
2024/01/27 01:52:25;;;;;;;3.38;1.05;;;10.90;87.80;;;;;;5117975;27;20079;-81
2024/01/27 01:54:51;;;;;;;2.00;0.70;;;10.90;87.80;;;;;;5136252;27;20023;-81
2024/01/27 01:57:16;;;;;;;3.30;0.90;;;10.90;87.70;;;;;;5117812;27;20387;-81
2024/01/27 01:59:42;;;;;;;6.22;1.10;;;10.90;87.80;;;;;;5117917;27;20019;-81
2024/01/27 02:02:08;;;;;;;3.20;1.02;;;10.90;87.70;;;;;;5117943;27;20536;-81
2024/01/27 02:04:45;;;;;;;1.90;0.93;;;10.90;87.70;;;;;;5117523;27;20019;-81
2024/01/27 02:07:11;;;;;;;2.78;0.80;;;10.90;87.70;;;;;;5117178;27;20031;-81
2024/01/27 02:09:36;;;;;;;2.00;0.90;;;10.80;87.60;;;;;;5117529;27;20395;-81
2024/01/27 02:12:02;;;;;;;3.20;0.90;;;10.80;87.70;;;;;;5136220;27;20440;-81
2024/01/27 02:14:28;;;;;;;2.08;0.80;;;10.90;87.70;;;;;;5135853;27;20019;-80
2024/01/27 02:16:54;;;;;;;4.40;0.90;;;10.90;87.70;;;;;;5135824;27;20391;-81
2024/01/27 02:19:19;;;;;;;3.08;0.95;;;10.90;87.80;;;;;;5117340;27;20031;-81
2024/01/27 02:21:45;;;;;;;2.60;0.82;;;10.90;87.70;;;;;;5117433;27;20141;-80
2024/01/27 02:24:10;;;;;;;3.88;1.02;;;10.90;87.70;;;;;;5081694;28;20032;-80
2024/01/27 02:26:36;;;;;;;3.05;0.88;;;10.90;87.70;;;;;;5076674;28;20111;-81
2024/01/27 02:29:02;;;;;;;3.15;1.00;;;10.90;87.70;;;;;;5076673;28;20020;-81
2024/01/27 02:31:27;;;;;;;4.90;1.30;;;10.90;87.70;;;;;;5076481;28;20016;-81
2024/01/27 02:33:53;;;;;;;3.70;0.90;;;10.90;87.70;;;;;;5075740;28;20043;-79
2024/01/27 02:36:18;;;;;;;3.90;1.20;;;10.80;87.60;;;;;;5076316;28;20107;-80
2024/01/27 02:38:43;;;;;;;2.55;0.70;;;10.90;87.70;;;;;;5076420;28;20024;-81
2024/01/27 02:41:11;;;;;;;2.55;1.00;;;10.90;87.70;;;;;;5076352;28;20111;-81
2024/01/27 02:43:36;;;;;;;2.88;0.90;;;10.90;87.70;;;;;;5094484;28;20380;-80
2024/01/27 02:46:02;;;;;;;1.92;0.80;;;10.90;87.70;;;;;;5076034;28;20024;-81
2024/01/27 02:48:27;;;;;;;5.32;1.13;;;10.90;87.70;;;;;;5093181;28;20438;-81
2024/01/27 02:50:53;;;;;;;3.72;1.00;;;10.90;87.70;;;;;;5076300;28;20056;-80
2024/01/27 02:53:18;;;;;;;3.60;1.05;;;10.80;87.70;;;;;;5094210;28;20103;-80
2024/01/27 02:55:44;;;;;;;4.72;1.00;;;10.80;87.70;;;;;;5076075;28;20028;-79
2024/01/27 02:58:10;;;;;;;3.47;1.02;;;10.90;87.70;;;;;;5076236;28;20113;-81
2024/01/27 03:00:35;;;;;;;4.20;1.20;;;10.90;87.70;;;;;;5076030;28;20465;-81
2024/01/27 03:03:01;;;;;;;2.40;0.88;;;10.90;87.70;;;;;;5076012;28;20073;-81
2024/01/27 03:05:26;;;;;;;4.03;0.90;;;10.90;87.70;;;;;;5094226;28;20115;-80
2024/01/27 03:07:52;;;;;;;4.13;1.00;;;10.80;87.70;;;;;;5075700;28;20392;-81
2024/01/27 03:10:17;;;;;;;3.25;1.08;;;10.90;87.70;;;;;;5075969;28;20024;-81
2024/01/27 03:12:42;;;;;;;3.28;0.93;;;10.80;87.70;;;;;;5075948;28;20024;-81
2024/01/27 03:15:08;;;;;;;2.78;0.95;;;10.90;87.70;;;;;;5075733;28;20139;-80
2024/01/27 03:17:34;;;;;;;3.42;0.90;;;10.90;87.70;;;;;;5075154;28;20044;-81
2024/01/27 03:19:59;;;;;;;3.58;0.90;;;10.90;87.70;;;;;;5075267;28;20016;-80
2024/01/27 03:22:25;;;;;;;3.17;1.08;;;10.90;87.70;;;;;;5075691;28;20043;-79
2024/01/27 03:24:51;;;;;;;3.05;0.90;;;10.90;87.70;;;;;;5075547;28;20476;-81
2024/01/27 03:27:17;;;;;;;5.13;1.38;;;10.90;87.70;;;;;;5093369;28;20031;-81
2024/01/27 03:29:42;;;;;;;2.25;0.82;;;10.80;87.60;;;;;;5075565;28;20044;-79
2024/01/27 03:32:13;;;;;;;2.35;0.90;;;10.80;87.60;;;;;;5075737;28;20496;-81
2024/01/27 03:34:44;;;;;;;3.70;0.75;;;10.80;87.60;;;;;;5087698;27;20034;-80
2024/01/27 03:37:10;;;;;;;1.70;0.90;;;10.80;87.60;;;;;;5093351;28;20028;-80
2024/01/27 03:39:35;;;;;;;3.38;1.10;;;10.80;87.60;;;;;;5075396;28;20032;-81
2024/01/27 03:42:01;;;;;;;3.10;1.00;;;10.90;87.70;;;;;;5075539;28;20020;-80
2024/01/27 03:44:26;;;;;;;4.15;0.90;;;10.80;87.60;;;;;;5075346;28;20078;-80
2024/01/27 03:46:52;;;;;;;2.83;1.10;;;10.90;87.70;;;;;;5075169;28;20020;-80
2024/01/27 03:49:17;;;;;;;4.70;1.10;;;10.90;87.70;;;;;;5075112;28;20016;-79
2024/01/27 03:51:43;;;;;;;4.28;1.23;;;10.80;87.60;;;;;;5093382;28;20028;-80
2024/01/27 03:54:08;;;;;;;4.00;0.90;;;10.80;87.60;;;;;;5075036;28;20028;-80
2024/01/27 03:56:33;;;;;;;3.33;0.93;;;10.80;87.60;;;;;;5075097;28;20020;-82
2024/01/27 03:58:59;;;;;;;3.22;0.93;;;10.80;88.10;;;;;;5074992;28;20031;-81
2024/01/27 04:01:24;;;;;;;3.78;1.10;;;10.80;87.60;;;;;;5074921;28;20028;-81
2024/01/27 04:03:50;;;;;;;2.17;0.80;;;10.80;87.60;;;;;;5074741;28;20473;-81
2024/01/27 04:06:15;;;;;;;3.40;1.27;;;10.80;87.60;;;;;;5074695;28;20028;-81
2024/01/27 04:08:43;;;;;;;2.25;0.93;;;10.90;87.70;;;;;;5074943;28;20510;-81
2024/01/27 04:11:09;;;;;;;4.32;1.00;;;10.80;87.60;;;;;;5074826;28;20024;-81
2024/01/27 04:13:36;;;;;;;3.63;0.85;;;10.80;87.60;;;;;;5074689;28;20654;-81
2024/01/27 04:16:01;;;;;;;4.85;1.20;;;10.80;87.60;;;;;;5092478;28;20081;-81
2024/01/27 04:18:27;;;;;;;2.72;1.00;;;10.80;87.60;;;;;;5074602;28;20020;-81
2024/01/27 04:20:52;;;;;;;2.58;1.00;;;10.80;87.60;;;;;;5074709;28;20012;-81
2024/01/27 04:23:18;;;;;;;4.07;1.13;;;10.80;87.70;;;;;;5074827;28;20035;-81
2024/01/27 04:25:43;;;;;;;2.92;0.90;;;10.80;87.70;;;;;;5092783;28;20020;-80
2024/01/27 04:28:11;;;;;;;2.85;1.20;;;10.80;87.60;;;;;;5092607;28;20032;-81
2024/01/27 04:30:37;;;;;;;2.63;1.05;;;10.80;87.60;;;;;;5074406;28;20488;-81
2024/01/27 04:33:02;;;;;;;4.22;0.90;;;10.80;87.60;;;;;;5092435;28;20024;-81
2024/01/27 04:35:28;;;;;;;3.63;1.02;;;10.80;87.60;;;;;;5092398;28;20481;-81
2024/01/27 04:37:53;;;;;;;2.35;0.98;;;10.80;87.60;;;;;;5074587;28;20376;-81
2024/01/27 04:40:19;;;;;;;2.53;0.90;;;10.80;87.60;;;;;;5074638;28;20030;-81
2024/01/27 04:42:45;;;;;;;3.33;1.17;;;10.70;87.50;;;;;;5092370;28;20024;-82
2024/01/27 04:45:15;;;;;;;3.17;0.95;;;10.80;87.60;;;;;;5074342;28;20111;-81
2024/01/27 04:47:41;;;;;;;4.03;1.27;;;10.80;87.60;;;;;;5074217;28;20817;-81
2024/01/27 04:50:06;;;;;;;3.50;1.15;;;10.80;87.60;;;;;;5074443;28;20024;-82
2024/01/27 04:52:32;;;;;;;2.85;1.00;;;10.80;87.60;;;;;;5074310;28;20395;-81
2024/01/27 04:54:58;;;;;;;3.22;0.93;;;10.80;87.60;;;;;;5092300;28;20031;-80
2024/01/27 04:57:23;;;;;;;4.55;1.17;;;10.80;87.60;;;;;;5092234;28;20023;-81
2024/01/27 04:59:49;;;;;;;4.20;1.27;;;10.80;87.60;;;;;;5074164;28;20369;-81
2024/01/27 05:02:14;;;;;;;5.22;1.10;;;10.80;87.60;;;;;;5092377;28;20048;-81
2024/01/27 05:04:40;;;;;;;3.47;1.20;;;10.80;87.60;;;;;;5092343;28;20311;-79
2024/01/27 05:07:06;;;;;;;3.38;1.00;;;10.80;87.60;;;;;;5074024;28;20475;-81
2024/01/27 05:09:33;;;;;;;4.28;1.10;;;10.80;88.10;;;;;;5074138;28;20024;-81
2024/01/27 05:12:00;;;;;;;2.35;0.90;;;10.80;87.60;;;;;;5074367;28;20107;-81
2024/01/27 05:14:25;;;;;;;5.15;1.48;;;10.80;87.60;;;;;;5073859;28;20475;-81
2024/01/27 05:16:51;;;;;;;2.72;1.00;;;10.80;87.60;;;;;;5074088;28;20105;-79
2024/01/27 05:19:17;;;;;;;3.05;0.90;;;10.80;87.60;;;;;;5092343;28;20024;-81
2024/01/27 05:21:43;;;;;;;2.45;1.10;;;10.80;87.60;;;;;;5073934;28;20027;-81
2024/01/27 05:24:09;;;;;;;3.92;1.08;;;10.80;87.60;;;;;;5074201;28;20028;-78
2024/01/27 05:26:34;;;;;;;3.15;1.33;;;10.80;87.60;;;;;;5073988;28;20043;-81
2024/01/27 05:29:00;;;;;;;3.08;1.00;;;10.80;87.60;;;;;;5074026;28;20028;-81
2024/01/27 05:31:26;;;;;;;3.45;0.98;;;10.80;87.60;;;;;;5074134;28;20139;-82
2024/01/27 05:33:52;;;;;;;4.57;1.40;;;10.80;87.60;;;;;;5080543;28;20055;-81
2024/01/27 05:36:17;;;;;;;3.15;1.10;;;10.80;87.60;;;;;;5096528;28;20585;-82
2024/01/27 05:38:43;;;;;;;2.70;1.23;;;10.80;87.60;;;;;;5074016;28;20430;-81
2024/01/27 05:41:08;;;;;;;2.72;1.10;;;10.80;87.60;;;;;;5074218;28;20031;-80
2024/01/27 05:43:34;;;;;;;3.17;1.20;;;10.80;87.60;;;;;;5077573;28;20017;-82
2024/01/27 05:45:59;;;;;;;4.47;1.35;;;10.80;87.60;;;;;;5095765;28;20468;-80
2024/01/27 05:48:25;;;;;;;2.45;1.02;;;10.80;87.60;;;;;;5103843;28;20028;-79
2024/01/27 05:50:57;;;;;;;4.68;1.40;;;10.80;87.60;;;;;;5086016;28;20103;-80
2024/01/27 05:53:23;;;;;;;4.22;1.20;;;10.80;87.60;;;;;;5110252;27;20019;-80
2024/01/27 05:55:48;;;;;;;2.60;1.02;;;10.80;87.60;;;;;;5117893;27;20034;-79
2024/01/27 05:58:14;;;;;;;2.97;1.00;;;10.80;87.60;;;;;;5117989;27;20020;-80
2024/01/27 06:00:39;;;;;;;3.30;1.10;;;10.80;87.60;;;;;;5117908;27;20376;-80
2024/01/27 06:03:05;;;;;;;3.65;1.17;;;10.80;87.50;;;;;;5117945;27;20055;-80
2024/01/27 06:05:30;;;;;;;3.78;1.08;;;10.80;88.00;;;;;;5136283;27;20023;-80
2024/01/27 06:07:56;;;;;;;4.25;1.30;;;10.80;87.50;;;;;;5117924;27;20080;-80
2024/01/27 06:10:22;;;;;;;2.80;1.10;;;10.80;87.50;;;;;;5117158;27;20039;-82
2024/01/27 06:12:47;;;;;;;3.58;1.30;;;10.80;87.40;;;;;;5136520;27;20399;-81
2024/01/27 06:15:15;;;;;;;3.72;1.23;;;10.80;87.40;;;;;;5116446;27;20034;-83
2024/01/27 06:17:40;;;;;;;4.65;1.50;;;10.80;87.40;;;;;;5117433;27;20024;-84
2024/01/27 06:20:07;;;;;;;3.15;1.05;;;10.80;87.40;;;;;;5111958;28;20030;-81
2024/01/27 06:22:32;;;;;;;2.63;1.15;;;10.80;87.40;;;;;;5095606;28;20027;-82
2024/01/27 06:24:58;;;;;;;3.78;1.17;;;10.80;87.40;;;;;;5096107;28;20024;-80
2024/01/27 06:27:23;;;;;;;3.15;1.10;;;10.80;87.40;;;;;;5096326;28;20031;-81
2024/01/27 06:29:49;;;;;;;4.35;1.40;;;10.80;87.40;;;;;;5095896;28;20037;-81
2024/01/27 06:32:15;;;;;;;3.40;1.25;;;10.80;87.30;;;;;;5114114;28;20033;-81
2024/01/27 06:34:41;;;;;;;3.70;1.40;;;10.80;87.30;;;;;;5096853;28;20063;-84
2024/01/27 06:37:07;;;;;;;3.28;1.30;;;10.80;87.30;;;;;;5096486;28;20028;-84
2024/01/27 06:39:32;;;;;;;2.75;1.23;;;10.80;87.30;;;;;;5096649;28;20380;-81
2024/01/27 06:41:58;;;;;;;2.65;1.10;;;10.80;87.30;;;;;;5095409;28;20024;-80
2024/01/27 06:44:23;;;;;;;3.95;1.10;;;10.80;87.30;;;;;;5095731;28;20500;-80
2024/01/27 06:46:50;;;;;;;3.20;1.42;;;10.80;87.20;;;;;;5113629;28;20028;-79
2024/01/27 06:49:16;;;;;;;3.58;1.30;;;10.80;87.20;;;;;;5095481;28;20396;-82
2024/01/27 06:51:43;;;;;;;3.25;1.27;;;10.80;87.20;;;;;;5095522;28;20019;-82
2024/01/27 06:54:08;;;;;;;4.57;1.40;;;10.80;87.10;;;;;;5095701;28;20042;-82
2024/01/27 06:56:34;;;;;;;3.45;1.17;;;10.80;87.10;;;;;;5094529;28;20023;-82
2024/01/27 06:58:59;;;;;;;2.88;1.13;;;10.80;87.10;;;;;;5095420;28;20122;-81
2024/01/27 07:01:25;;;;;;;4.03;1.35;;;10.80;87.10;;;;;;5094796;28;20016;-81
2024/01/27 07:03:50;;;;;;;3.25;1.40;;;10.80;87.10;;;;;;5095557;28;20063;-83
2024/01/27 07:06:15;;;;;;;3.72;1.40;;;10.80;87.10;;;;;;5094474;28;20053;-81
2024/01/27 07:08:41;;;;;;;3.38;1.27;;;10.80;87.10;;;;;;5095222;28;20024;-82
2024/01/27 07:11:07;;;;;;;3.97;1.30;;;10.80;87.10;;;;;;5094312;28;20084;-82
2024/01/27 07:13:33;;;;;;;3.72;1.30;;;10.80;87.10;;;;;;5096084;28;20055;-83
2024/01/27 07:15:59;;;;;;;4.30;1.60;;;10.80;87.10;;;;;;5096105;28;20031;-82
2024/01/27 07:18:25;;;;;;;4.22;1.40;;;10.80;87.10;;;;;;5096340;28;20020;-84
2024/01/27 07:20:51;;;;;;;4.30;1.48;;;10.80;87.10;;;;;;5095216;28;20028;-82
2024/01/27 07:23:17;;;;;;;3.03;1.33;;;10.80;87.10;;;;;;5113253;28;20441;-82
2024/01/27 07:25:43;;;;;;;2.35;1.38;;;10.80;87.10;;;;;;5094981;28;20030;-83
2024/01/27 07:28:08;;;;;;;4.13;1.40;;;10.80;87.10;;;;;;5094920;28;20703;-83
2024/01/27 07:30:34;;;;;;;6.43;2.00;;;10.80;87.10;;;;;;5095172;28;20031;-82
2024/01/27 07:32:59;;;;;;;2.70;1.30;;;10.80;87.10;;;;;;5113593;28;20069;-82
2024/01/27 07:35:25;;;;;;;3.78;1.50;;;10.80;87.10;;;;;;5094370;28;20571;-82
2024/01/27 07:37:50;;;;;;;4.65;1.77;;;10.80;87.10;;;;;;5113559;28;20020;-83
2024/01/27 07:40:16;;;;;;;4.25;1.50;;;10.80;87.10;;;;;;5092105;28;20092;-79
2024/01/27 07:42:41;;;;;;;4.18;1.50;;;10.80;87.00;;;;;;5093110;28;20393;-81
2024/01/27 07:45:08;;;;;;;5.13;1.65;;;10.80;87.00;;;;;;5093420;28;20024;-82
2024/01/27 07:47:34;;;;;;;3.00;1.50;;;10.80;87.00;;;;;;5092817;28;20059;-81
2024/01/27 07:50:00;;;;;;;5.05;1.55;;;10.80;86.90;;;;;;5093267;28;20070;-82
2024/01/27 07:52:25;;;;;;;5.55;1.77;;;10.80;86.90;;;;;;5092529;28;20028;-84
2024/01/27 07:54:51;;;;;;;3.63;1.70;;;10.80;86.80;;;;;;5110789;28;20024;-81
2024/01/27 07:57:16;;;;;;;3.67;1.73;;;10.80;86.70;;;;;;5093007;28;20459;-80
2024/01/27 07:59:42;;;;;;;4.03;1.70;;;10.90;86.60;;;;;;5111288;28;20038;-79
2024/01/27 08:02:07;;;;;;;5.45;1.90;;;10.90;86.60;;;;;;5093055;28;20804;-81
2024/01/27 08:04:33;;;;;;;4.38;1.73;;;10.90;86.50;;;;;;5110615;28;20365;-83
2024/01/27 08:06:58;;;;;;;4.28;1.83;;;10.90;86.40;;;;;;5093201;28;20035;-81
2024/01/27 08:09:24;;;;;;;3.97;1.50;;;10.90;86.40;;;;;;5092724;28;20027;-80
2024/01/27 08:11:52;;;;;;;5.50;1.75;;;10.90;86.40;;;;;;5110670;28;20023;-80
2024/01/27 08:14:18;;;;;;;3.47;1.67;;;10.90;86.40;;;;;;5093268;28;20023;-80
2024/01/27 08:16:43;;;;;;;5.28;1.95;;;11.00;86.40;;;;;;5092464;28;20030;-81
2024/01/27 08:19:09;;;;;;;4.00;1.55;;;11.00;86.40;;;;;;5093363;28;20024;-81
2024/01/27 08:21:34;;;;;;;3.28;1.67;;;11.00;86.20;;;;;;5092581;28;20033;-82
2024/01/27 08:24:00;;;;;;;3.97;1.90;;;11.00;86.10;;;;;;5093528;28;20076;-82
2024/01/27 08:26:25;;;;;;;3.85;1.85;;;11.10;86.10;;;;;;5110720;28;20108;-79
2024/01/27 08:28:51;;;;;;;3.83;1.60;;;11.10;85.90;;;;;;5111271;28;20559;-81
2024/01/27 08:31:16;;;;;;;4.75;1.88;;;11.10;85.80;;;;;;5111027;28;20035;-81
2024/01/27 08:33:42;;;;;;;3.65;1.75;;;11.10;85.60;;;;;;5091981;28;20392;-80
2024/01/27 08:36:07;;;;;;;5.20;1.90;;;11.10;85.50;;;;;;5091155;28;20055;-80
2024/01/27 08:38:33;;;;;;;4.60;1.90;;;11.20;85.40;;;;;;5092082;28;20019;-82
2024/01/27 08:40:58;;;;;;;4.03;1.77;;;11.20;85.20;;;;;;5092821;28;20544;-81
2024/01/27 08:43:24;;;;;;;5.20;1.70;;;11.20;85.20;;;;;;5091152;28;20051;-81
2024/01/27 08:45:49;;;;;;;4.22;1.75;;;11.20;85.10;;;;;;5091097;28;20028;-80
2024/01/27 08:48:16;;;;;;;5.85;1.90;;;11.20;85.30;;;;;;5091399;28;20028;-81
2024/01/27 08:50:41;;;;;;;5.60;1.83;;;11.30;85.40;;;;;;5090991;28;20024;-81
2024/01/27 08:53:07;;;;;;;4.03;1.80;;;11.30;85.20;;;;;;5091665;28;20502;-80
2024/01/27 08:55:32;;;;;;;4.50;1.90;;;11.40;85.20;;;;;;5091119;28;20118;-80
2024/01/27 08:57:58;;;;;;;4.68;1.95;;;11.40;85.10;;;;;;5109232;28;20047;-80
2024/01/27 09:00:23;;;;;;;4.60;1.88;;;11.40;85.00;;;;;;5091930;28;20020;-79
2024/01/27 09:02:49;;;;;;;3.85;1.92;;;11.40;84.90;;;;;;5091700;28;20060;-82
2024/01/27 09:05:14;;;;;;;5.22;2.00;;;11.40;85.00;;;;;;5091056;28;20422;-84
2024/01/27 09:07:40;;;;;;;8.07;1.77;;;11.50;85.10;;;;;;5091610;28;20024;-81
2024/01/27 09:10:06;;;;;;;4.30;1.70;;;11.50;85.10;;;;;;5092189;28;20080;-79
2024/01/27 09:12:32;;;;;;;4.15;1.77;;;11.50;85.10;;;;;;5091991;28;20456;-81
2024/01/27 09:14:58;;;;;;;4.47;1.70;;;11.50;85.00;;;;;;5092330;28;20107;-79
2024/01/27 09:17:23;;;;;;;3.92;1.88;;;11.60;85.00;;;;;;5093855;28;20043;-80
2024/01/27 09:19:49;;;;;;;3.88;1.70;;;11.60;84.90;;;;;;5095427;28;20031;-80
2024/01/27 09:22:15;;;;;;;4.43;2.10;;;11.60;84.90;;;;;;5095987;28;20020;-80
2024/01/27 09:24:40;;;;;;;4.45;1.92;;;11.60;84.80;;;;;;5095765;28;20034;-80
2024/01/27 09:27:06;;;;;;;4.90;1.80;;;11.60;84.80;;;;;;5096375;28;20031;-80
2024/01/27 09:29:31;;;;;;;4.70;2.05;;;11.60;84.80;;;;;;5095656;28;20034;-82
2024/01/27 09:31:57;;;;;;;3.97;1.83;;;11.70;84.80;;;;;;5096351;28;20058;-81
2024/01/27 09:34:22;;;;;;;5.03;2.00;;;11.70;84.80;;;;;;5113624;28;20130;-79
2024/01/27 09:36:48;;;;;;;3.22;1.73;;;11.70;84.80;;;;;;5114536;28;20463;-81
2024/01/27 09:39:13;;;;;;;3.60;1.83;;;11.70;84.70;;;;;;5113935;28;20020;-80
2024/01/27 09:41:39;;;;;;;5.15;1.95;;;11.70;84.60;;;;;;5095576;28;20391;-80
2024/01/27 09:44:04;;;;;;;4.00;1.90;;;11.70;84.60;;;;;;5095246;28;20084;-80
2024/01/27 09:46:31;;;;;;;4.10;1.88;;;11.80;84.50;;;;;;5114720;28;20026;-80
2024/01/27 09:48:57;;;;;;;4.43;1.80;;;11.80;84.50;;;;;;5095049;28;20053;-79
2024/01/27 09:51:22;;;;;;;5.70;2.20;;;11.80;84.40;;;;;;5113774;28;20035;-80
2024/01/27 09:53:51;;;;;;;4.57;1.80;;;11.80;84.40;;;;;;5095063;28;20019;-79
2024/01/27 09:56:17;;;;;;;4.35;2.13;;;11.80;84.30;;;;;;5093679;28;20438;-80
2024/01/27 09:58:44;;;;;;;5.40;1.90;;;11.80;84.30;;;;;;5114040;28;20016;-81
2024/01/27 10:01:10;;;;;;;3.90;1.73;;;11.90;84.30;;;;;;5112956;28;20077;-80
2024/01/27 10:03:38;;;;;;;4.35;1.80;;;11.90;84.30;;;;;;5094422;28;20023;-80
2024/01/27 10:06:06;;;;;;;4.05;2.00;;;11.90;84.30;;;;;;5087331;28;20016;-80
2024/01/27 10:08:31;;;;;;;4.10;1.90;;;11.90;84.20;;;;;;5094440;28;20399;-78
2024/01/27 10:10:57;;;;;;;4.88;2.13;;;11.90;84.20;;;;;;5094130;28;20114;-81
2024/01/27 10:13:26;;;;;;;4.28;2.00;;;11.90;84.10;;;;;;5094579;28;20516;-79
2024/01/27 10:16:04;;;;;;;4.78;2.00;;;12.00;84.10;;;;;;5112166;28;20027;-80
2024/01/27 10:18:31;;;;;;;5.18;2.00;;;12.00;84.10;;;;;;5094724;28;20389;-81
2024/01/27 10:20:57;;;;;;;4.32;1.95;;;12.00;84.00;;;;;;5094499;28;20077;-82
2024/01/27 10:23:22;;;;;;;3.90;1.80;;;12.00;83.90;;;;;;5095348;28;20046;-79
2024/01/27 10:25:49;;;;;;;5.30;2.30;;;12.00;83.90;;;;;;5094851;28;20023;-80
2024/01/27 10:28:14;;;;;;;4.47;2.10;;;12.10;83.90;;;;;;5094199;28;20045;-80
2024/01/27 10:30:40;;;;;;;4.63;1.98;;;12.00;83.70;;;;;;5112596;28;20027;-81
2024/01/27 10:33:09;;;;;;;4.65;1.98;;;12.10;83.80;;;;;;5094699;28;20027;-80
2024/01/27 10:35:34;;;;;;;5.63;2.20;;;12.10;83.70;;;;;;5094166;28;20150;-82
2024/01/27 10:38:00;;;;;;;4.70;2.05;;;12.10;83.70;;;;;;5094018;28;20107;-83
2024/01/27 10:40:26;;;;;;;4.57;2.17;;;12.20;83.80;;;;;;5095747;28;20065;-78
2024/01/27 10:43:05;;;;;;;4.38;2.00;;;12.10;83.70;;;;;;5096420;28;20107;-79
2024/01/27 10:45:39;;;;;;;4.07;1.80;;;12.20;83.70;;;;;;5096638;28;20038;-79
2024/01/27 10:48:06;;;;;;;5.32;2.10;;;12.20;83.60;;;;;;5114499;28;20103;-78
2024/01/27 10:50:37;;;;;;;5.05;2.10;;;12.20;83.60;;;;;;5096178;28;20027;-78
2024/01/27 10:53:05;;;;;;;4.60;2.20;;;12.20;83.60;;;;;;5096282;28;20028;-80
2024/01/27 10:55:33;;;;;;;8.27;2.38;;;12.20;83.50;;;;;;5114493;28;20479;-79
2024/01/27 10:58:01;;;;;;;4.85;2.22;;;12.20;83.50;;;;;;5096243;28;20027;-79
2024/01/27 11:00:28;;;;;;;5.38;2.33;;;12.30;83.50;;;;;;5114410;28;20023;-80
2024/01/27 11:03:01;;;;;;;5.00;2.20;;;12.30;83.40;;;;;;5096317;28;20039;-80
2024/01/27 11:05:29;;;;;;;5.55;2.00;;;12.30;83.30;;;;;;5095909;28;20031;-80
2024/01/27 11:07:55;;;;;;;3.85;1.88;;;12.30;83.30;;;;;;5096025;28;20072;-81
2024/01/27 11:10:20;;;;;;;5.07;1.95;;;12.30;83.20;;;;;;5114214;28;20059;-79
2024/01/27 11:12:48;;;;;;;3.50;1.83;;;12.30;83.20;;;;;;5096071;28;20483;-79
2024/01/27 11:15:14;;;;;;;5.65;2.00;;;12.30;83.20;;;;;;5095690;28;20088;-79
2024/01/27 11:17:41;;;;;;;4.93;2.00;;;12.30;83.10;;;;;;5113989;28;20539;-79
2024/01/27 11:20:08;;;;;;;4.03;1.85;;;12.30;83.10;;;;;;5113845;28;20098;-79
2024/01/27 11:22:34;;;;;;;3.83;1.80;;;12.40;83.10;;;;;;5095823;28;20113;-80
2024/01/27 11:25:08;;;;;;;4.57;1.77;;;12.40;83.10;;;;;;5095705;28;20135;-79
2024/01/27 11:27:34;;;;;;;3.17;1.70;;;12.40;83.10;;;;;;5095500;28;20027;-80
2024/01/27 11:29:59;;;;;;;5.50;2.33;;;12.40;83.00;;;;;;5095618;28;20030;-80
2024/01/27 11:32:26;;;;;;;4.03;1.88;;;12.40;83.00;;;;;;5095954;28;20127;-79
2024/01/27 11:34:52;;;;;;;5.15;2.17;;;12.40;83.00;;;;;;5095351;28;20035;-80
2024/01/27 11:37:19;;;;;;;3.67;1.70;;;12.40;83.00;;;;;;5095296;28;20660;-80
2024/01/27 11:39:45;;;;;;;4.50;2.00;;;12.40;82.90;;;;;;5094867;28;20073;-81
2024/01/27 11:42:13;;;;;;;3.15;1.67;;;12.40;82.90;;;;;;5095506;28;20402;-80
2024/01/27 11:44:39;;;;;;;4.97;2.10;;;12.40;82.90;;;;;;5095305;28;20039;-80
2024/01/27 11:47:13;;;;;;;4.72;1.80;;;12.50;82.90;;;;;;5094903;28;20030;-81
2024/01/27 11:49:39;;;;;;;4.28;1.80;;;12.50;82.80;;;;;;5113123;28;20051;-79
2024/01/27 11:52:06;;;;;;;4.45;2.05;;;12.50;82.80;;;;;;5113115;28;20020;-79
2024/01/27 11:54:32;;;;;;;4.72;2.17;;;12.50;82.80;;;;;;5094687;28;20031;-79
2024/01/27 11:56:57;;;;;;;4.03;1.95;;;12.50;82.70;;;;;;5094823;28;20110;-78
2024/01/27 11:59:23;;;;;;;4.90;2.00;;;12.50;82.70;;;;;;5094956;28;20545;-79
2024/01/27 12:01:49;;;;;;;3.65;1.63;;;12.50;82.60;;;;;;5113273;28;20045;-79
2024/01/27 12:04:15;;;;;;;5.35;1.90;;;12.50;82.60;;;;;;5094758;28;20023;-78
2024/01/27 12:06:43;;;;;;;3.40;1.63;;;12.50;82.60;;;;;;5113036;28;20033;-80
2024/01/27 12:09:11;;;;;;;4.47;1.83;;;12.50;82.60;;;;;;5113099;28;20020;-79
2024/01/27 12:11:41;;;;;;;3.58;1.63;;;12.50;82.60;;;;;;5094899;28;20027;-79
2024/01/27 12:14:07;;;;;;;4.32;1.80;;;12.60;82.60;;;;;;5094033;28;20032;-79
2024/01/27 12:16:32;;;;;;;3.45;1.70;;;12.50;82.50;;;;;;5094650;28;20519;-79
2024/01/27 12:18:58;;;;;;;3.53;1.67;;;12.50;82.50;;;;;;5112772;28;20027;-79
2024/01/27 12:21:23;;;;;;;3.58;1.70;;;12.60;82.60;;;;;;5094551;28;20063;-80
2024/01/27 12:23:54;;;;;;;3.40;1.60;;;12.50;82.50;;;;;;5094189;28;20544;-79
2024/01/27 12:26:26;;;;;;;3.28;1.70;;;12.50;82.50;;;;;;5094340;28;20029;-80
2024/01/27 12:28:52;;;;;;;3.90;1.77;;;12.60;82.60;;;;;;5112799;28;20024;-80
2024/01/27 12:31:18;;;;;;;4.28;1.65;;;12.50;82.50;;;;;;5110794;28;20034;-78
2024/01/27 12:33:55;;;;;;;4.07;1.67;;;12.50;82.50;;;;;;5089901;28;20085;-80
2024/01/27 12:36:21;;;;;;;4.47;1.98;;;12.60;82.60;;;;;;5095175;28;20030;-81
2024/01/27 12:38:58;;;;;;;3.45;1.50;;;12.50;82.50;;;;;;5096735;28;20023;-80
2024/01/27 12:41:25;;;;;;;4.97;1.75;;;12.60;82.60;;;;;;5096938;28;20734;-80